Time;durP1;ratioP1;P1;durP2;ratioP2;P2;SDS_P1;SDS_P2;PMS_P1;PMS_P2;Temp;Humidity;BMP_temperature;BMP_pressure;BME280_temperature;BME280_humidity;BME280_pressure;Samples;Min_cycle;Max_cycle;Signal;HPM_P1;HPM_P2
2022/07/05 00:01:00;;;;;;;3.97;3.33;;;13.70;99.90;;;;;;4856735;29;20080;-34
2022/07/05 00:03:27;;;;;;;4.70;2.80;;;13.70;99.90;;;;;;4840320;29;20085;-34
2022/07/05 00:05:53;;;;;;;7.10;3.10;;;13.70;99.90;;;;;;4830456;29;20050;-33
2022/07/05 00:08:19;;;;;;;3.95;2.85;;;13.60;99.90;;;;;;4834033;29;20588;-34
2022/07/05 00:10:44;;;;;;;5.75;2.95;;;13.60;99.90;;;;;;4855430;29;20058;-34
2022/07/05 00:13:11;;;;;;;5.20;3.17;;;13.60;99.90;;;;;;4851280;29;20060;-33
2022/07/05 00:15:37;;;;;;;8.25;3.05;;;13.60;99.90;;;;;;4846490;29;20049;-34
2022/07/05 00:18:03;;;;;;;4.28;2.53;;;13.50;99.90;;;;;;4829332;29;20101;-34
2022/07/05 00:20:29;;;;;;;4.50;2.78;;;13.60;99.90;;;;;;4843679;29;20138;-34
2022/07/05 00:22:55;;;;;;;4.57;3.00;;;13.50;99.90;;;;;;4846645;29;20635;-34
2022/07/05 00:25:20;;;;;;;5.03;2.60;;;13.50;99.90;;;;;;4846144;29;20046;-34
2022/07/05 00:27:46;;;;;;;4.90;3.15;;;13.50;99.90;;;;;;4831889;29;20045;-34
2022/07/05 00:30:13;;;;;;;7.43;2.85;;;13.50;99.90;;;;;;4832049;29;20195;-34
2022/07/05 00:32:39;;;;;;;4.88;3.03;;;13.40;99.90;;;;;;4842743;29;20498;-33
2022/07/05 00:35:06;;;;;;;3.92;2.88;;;13.40;99.90;;;;;;4845603;29;20489;-34
2022/07/05 00:37:32;;;;;;;3.22;2.78;;;13.40;99.90;;;;;;4832191;29;20490;-34
2022/07/05 00:39:58;;;;;;;4.20;2.80;;;13.40;99.90;;;;;;4843355;29;20061;-34
2022/07/05 00:42:24;;;;;;;4.55;2.70;;;13.40;99.90;;;;;;4847658;29;20085;-34
2022/07/05 00:44:50;;;;;;;5.55;2.75;;;13.40;99.90;;;;;;4848320;29;20053;-34
2022/07/05 00:47:16;;;;;;;6.40;3.10;;;13.30;99.90;;;;;;4834840;29;20056;-34
2022/07/05 00:49:42;;;;;;;4.15;2.85;;;13.30;99.90;;;;;;4845075;29;20470;-34
2022/07/05 00:52:09;;;;;;;4.93;2.70;;;13.30;99.90;;;;;;4830195;29;20540;-34
2022/07/05 00:54:37;;;;;;;5.00;3.10;;;13.30;99.90;;;;;;4852795;29;20117;-34
2022/07/05 00:57:03;;;;;;;7.32;3.10;;;13.30;99.90;;;;;;4833208;29;20128;-34
2022/07/05 00:59:30;;;;;;;6.45;3.63;;;13.20;99.90;;;;;;4850092;29;20192;-34
2022/07/05 01:01:56;;;;;;;5.65;3.40;;;13.20;99.90;;;;;;4849780;29;20092;-34
2022/07/05 01:04:22;;;;;;;4.75;2.78;;;13.20;99.90;;;;;;4843851;29;20049;-34
2022/07/05 01:06:49;;;;;;;8.10;3.13;;;13.20;99.90;;;;;;4836334;29;20049;-34
2022/07/05 01:09:16;;;;;;;5.03;2.97;;;13.20;99.90;;;;;;4848304;29;20131;-33
2022/07/05 01:11:44;;;;;;;6.13;2.85;;;13.20;99.90;;;;;;4847990;29;20057;-34
2022/07/05 01:14:13;;;;;;;4.70;3.15;;;13.20;99.90;;;;;;4851166;29;20050;-34
2022/07/05 01:16:39;;;;;;;3.95;3.25;;;13.10;99.90;;;;;;4835803;29;20058;-33
2022/07/05 01:19:09;;;;;;;4.07;2.95;;;13.00;99.90;;;;;;4847184;29;20065;-34
2022/07/05 01:21:40;;;;;;;6.10;3.53;;;13.10;99.90;;;;;;4847657;29;20069;-34
2022/07/05 01:24:08;;;;;;;4.95;3.17;;;13.10;99.90;;;;;;4832192;29;20509;-34
2022/07/05 01:26:34;;;;;;;4.53;3.40;;;13.10;99.90;;;;;;4835730;29;20050;-34
2022/07/05 01:28:59;;;;;;;4.75;3.30;;;13.10;99.90;;;;;;4849062;29;20109;-34
2022/07/05 01:31:25;;;;;;;4.28;2.85;;;13.00;99.90;;;;;;4853633;29;20504;-34
2022/07/05 01:33:51;;;;;;;6.15;3.20;;;13.00;99.90;;;;;;4851097;29;20038;-34
2022/07/05 01:36:17;;;;;;;4.65;3.55;;;12.90;99.90;;;;;;4843405;29;20057;-34
2022/07/05 01:38:44;;;;;;;6.30;3.85;;;12.80;99.90;;;;;;4848963;29;20415;-34
2022/07/05 01:41:09;;;;;;;6.88;3.00;;;12.90;99.90;;;;;;4849121;29;20506;-34
2022/07/05 01:43:35;;;;;;;6.28;3.47;;;12.70;99.90;;;;;;4853097;29;20056;-34
2022/07/05 01:46:02;;;;;;;5.03;3.30;;;12.80;99.90;;;;;;4833010;29;20054;-34
2022/07/05 01:48:31;;;;;;;5.30;3.58;;;12.70;99.90;;;;;;4838270;29;20065;-33
2022/07/05 01:51:26;;;;;;;4.60;3.47;;;12.60;99.90;;;;;;4854050;29;20145;-34
2022/07/05 01:53:53;;;;;;;4.35;3.50;;;12.60;99.90;;;;;;4834506;29;20057;-33
2022/07/05 01:56:19;;;;;;;5.88;3.67;;;12.60;99.90;;;;;;4844558;29;20504;-34
2022/07/05 01:58:45;;;;;;;7.93;4.05;;;12.50;99.90;;;;;;4833413;29;20174;-33
2022/07/05 02:01:12;;;;;;;6.57;4.32;;;12.50;99.90;;;;;;4854645;29;20061;-33
2022/07/05 02:03:40;;;;;;;7.57;4.55;;;12.50;99.90;;;;;;4853131;29;20616;-33
2022/07/05 02:06:08;;;;;;;6.10;4.05;;;12.50;99.90;;;;;;4844585;29;20053;-34
2022/07/05 02:08:34;;;;;;;8.27;3.92;;;12.40;99.90;;;;;;4846806;29;20053;-34
2022/07/05 02:11:00;;;;;;;4.65;3.60;;;12.40;99.90;;;;;;4849018;29;20053;-33
2022/07/05 02:13:25;;;;;;;6.80;3.80;;;12.40;99.90;;;;;;4842964;29;20058;-34
2022/07/05 02:15:51;;;;;;;6.10;4.13;;;12.30;99.90;;;;;;4844212;29;20049;-33
2022/07/05 02:18:17;;;;;;;7.53;4.70;;;12.30;99.90;;;;;;4825481;29;20049;-34
2022/07/05 02:20:42;;;;;;;6.00;4.47;;;12.30;99.90;;;;;;4839386;29;20637;-34
2022/07/05 02:23:08;;;;;;;7.07;4.03;;;12.40;99.90;;;;;;4842683;29;20132;-33
2022/07/05 02:25:34;;;;;;;4.65;4.00;;;12.20;99.90;;;;;;4826263;29;20049;-33
2022/07/05 02:28:00;;;;;;;5.28;3.97;;;12.30;99.90;;;;;;4811566;29;20053;-33
2022/07/05 02:30:26;;;;;;;5.38;4.55;;;12.20;99.90;;;;;;4847309;29;20401;-34
2022/07/05 02:32:52;;;;;;;6.97;4.65;;;12.20;99.90;;;;;;4841663;29;20054;-33
2022/07/05 02:35:17;;;;;;;5.88;4.45;;;12.20;99.90;;;;;;4847547;29;20102;-34
2022/07/05 02:37:43;;;;;;;7.63;4.30;;;12.20;99.90;;;;;;4810794;29;20543;-33
2022/07/05 02:40:11;;;;;;;6.18;4.22;;;12.10;99.90;;;;;;4842228;29;20137;-33
2022/07/05 02:42:37;;;;;;;7.47;4.40;;;12.10;99.90;;;;;;4846696;29;20097;-34
2022/07/05 02:45:04;;;;;;;6.45;4.80;;;12.10;99.90;;;;;;4845532;29;20040;-33
2022/07/05 02:47:30;;;;;;;5.85;4.40;;;12.10;99.90;;;;;;4829852;29;20699;-34
2022/07/05 02:49:58;;;;;;;7.32;4.80;;;12.10;99.90;;;;;;4829064;29;20062;-33
2022/07/05 02:52:24;;;;;;;6.50;4.65;;;12.10;99.90;;;;;;4847344;29;20058;-34
2022/07/05 02:54:50;;;;;;;5.90;4.60;;;12.10;99.90;;;;;;4847107;29;20531;-34
2022/07/05 02:57:15;;;;;;;5.40;4.82;;;12.10;99.90;;;;;;4827952;29;20104;-34
2022/07/05 02:59:41;;;;;;;7.28;4.85;;;12.00;99.90;;;;;;4834790;29;20505;-33
2022/07/05 03:02:07;;;;;;;6.80;4.50;;;12.00;99.90;;;;;;4846129;29;20470;-34
2022/07/05 03:04:32;;;;;;;6.18;4.45;;;12.00;99.90;;;;;;4845878;29;20430;-33
2022/07/05 03:06:58;;;;;;;7.85;4.97;;;12.00;99.90;;;;;;4835826;29;20065;-33
2022/07/05 03:09:24;;;;;;;7.22;4.88;;;12.00;99.90;;;;;;4847886;29;20420;-33
2022/07/05 03:11:49;;;;;;;7.25;5.00;;;12.00;99.90;;;;;;4843509;29;20636;-34
2022/07/05 03:14:15;;;;;;;5.68;4.78;;;12.00;99.90;;;;;;4848499;29;20418;-33
2022/07/05 03:16:42;;;;;;;7.40;4.68;;;11.90;99.90;;;;;;4838775;29;20060;-34
2022/07/05 03:19:08;;;;;;;7.55;4.63;;;12.00;99.90;;;;;;4846524;29;20115;-33
2022/07/05 03:21:34;;;;;;;6.30;5.00;;;11.90;99.90;;;;;;4830958;29;20057;-34
2022/07/05 03:23:59;;;;;;;6.05;5.00;;;11.90;99.90;;;;;;4849125;29;20064;-34
2022/07/05 03:26:25;;;;;;;7.43;5.53;;;12.00;99.90;;;;;;4836839;29;20064;-33
2022/07/05 03:28:51;;;;;;;6.75;5.22;;;11.90;99.90;;;;;;4841147;29;20057;-34
2022/07/05 03:31:16;;;;;;;7.22;5.40;;;11.90;99.90;;;;;;4850607;29;20109;-33
2022/07/05 03:33:42;;;;;;;8.75;5.32;;;11.90;99.90;;;;;;4833979;29;20581;-34
2022/07/05 03:36:08;;;;;;;9.00;5.75;;;11.90;99.90;;;;;;4844671;29;20056;-34
2022/07/05 03:38:34;;;;;;;7.38;5.85;;;11.90;99.90;;;;;;4842584;29;20050;-34
2022/07/05 03:41:00;;;;;;;7.93;5.38;;;11.90;99.90;;;;;;4851252;29;20057;-34
2022/07/05 03:43:25;;;;;;;6.72;5.47;;;11.90;99.90;;;;;;4848564;29;20057;-34
2022/07/05 03:45:51;;;;;;;7.43;5.68;;;11.90;99.90;;;;;;4848668;29;20595;-33
2022/07/05 03:48:16;;;;;;;7.15;4.97;;;11.90;99.90;;;;;;4816475;29;20170;-34
2022/07/05 03:50:42;;;;;;;6.15;5.10;;;11.90;99.90;;;;;;4851510;29;21447;-34
2022/07/05 03:53:08;;;;;;;8.48;5.57;;;11.90;99.90;;;;;;4855807;29;20104;-34
2022/07/05 03:55:33;;;;;;;8.60;5.85;;;11.90;99.90;;;;;;4857804;29;20065;-33
2022/07/05 03:57:59;;;;;;;7.38;6.05;;;11.90;99.90;;;;;;4837333;29;20053;-33
2022/07/05 04:00:25;;;;;;;7.40;5.35;;;11.90;99.90;;;;;;4857399;29;20050;-33
2022/07/05 04:02:50;;;;;;;7.40;5.95;;;12.00;99.90;;;;;;4857204;29;20144;-33
2022/07/05 04:05:16;;;;;;;9.32;5.47;;;12.00;99.90;;;;;;4852186;29;20052;-33
2022/07/05 04:07:52;;;;;;;7.75;5.88;;;12.00;99.90;;;;;;4810189;29;20053;-33
2022/07/05 04:10:18;;;;;;;7.72;5.80;;;12.00;99.90;;;;;;4837912;29;20098;-34
2022/07/05 04:12:44;;;;;;;10.88;5.88;;;12.00;99.90;;;;;;4847432;29;20118;-33
2022/07/05 04:15:12;;;;;;;7.30;5.97;;;12.00;99.90;;;;;;4850301;29;20146;-33
2022/07/05 04:17:51;;;;;;;9.45;5.22;;;12.00;99.90;;;;;;4827417;29;20075;-33
2022/07/05 04:20:17;;;;;;;6.28;5.63;;;12.00;99.90;;;;;;4848569;29;20041;-33
2022/07/05 04:22:43;;;;;;;8.73;6.20;;;12.10;99.90;;;;;;4844678;29;20077;-33
2022/07/05 04:25:18;;;;;;;7.70;6.10;;;12.00;99.90;;;;;;4843367;29;20096;-33
2022/07/05 04:27:51;;;;;;;5.93;5.30;;;12.10;99.90;;;;;;4827406;29;20387;-34
2022/07/05 04:30:19;;;;;;;7.60;5.80;;;12.10;99.90;;;;;;4849113;29;20169;-33
2022/07/05 04:32:45;;;;;;;7.15;5.47;;;12.10;99.90;;;;;;4843382;29;20097;-33
2022/07/05 04:35:11;;;;;;;10.05;5.90;;;12.10;99.90;;;;;;4849174;29;20045;-33
2022/07/05 04:37:37;;;;;;;6.60;5.30;;;12.10;99.90;;;;;;4834457;29;20042;-34
2022/07/05 04:40:05;;;;;;;6.07;5.25;;;12.10;99.90;;;;;;4835980;29;20061;-40
2022/07/05 04:42:31;;;;;;;9.13;6.00;;;12.20;99.90;;;;;;4846967;29;20053;-40
2022/07/05 04:44:57;;;;;;;6.05;4.95;;;12.30;99.90;;;;;;4846233;29;20170;-40
2022/07/05 04:47:22;;;;;;;6.80;5.00;;;12.20;99.90;;;;;;4818849;29;20128;-42
2022/07/05 04:49:48;;;;;;;6.57;5.75;;;12.30;99.90;;;;;;4846536;29;20685;-42
2022/07/05 04:52:14;;;;;;;6.60;5.00;;;12.30;99.90;;;;;;4828227;29;20145;-42
2022/07/05 04:54:39;;;;;;;8.52;5.55;;;12.40;99.90;;;;;;4852423;29;20045;-41
2022/07/05 04:57:05;;;;;;;9.20;5.32;;;12.40;99.90;;;;;;4812909;29;20054;-42
2022/07/05 04:59:31;;;;;;;7.68;5.40;;;12.50;99.90;;;;;;4841626;29;20054;-41
2022/07/05 05:01:57;;;;;;;6.45;5.10;;;12.60;99.90;;;;;;4849864;29;20412;-41
2022/07/05 05:04:22;;;;;;;9.25;5.45;;;12.60;99.90;;;;;;4844609;29;20405;-42
2022/07/05 05:06:48;;;;;;;5.93;4.82;;;12.70;99.90;;;;;;4830849;29;20061;-41
2022/07/05 05:09:14;;;;;;;6.22;5.07;;;12.80;99.90;;;;;;4834189;29;20141;-41
2022/07/05 05:11:39;;;;;;;6.43;4.95;;;13.00;99.90;;;;;;4847326;29;20103;-41
2022/07/05 05:14:05;;;;;;;7.07;4.95;;;13.10;99.90;;;;;;4848192;29;20065;-41
2022/07/05 05:16:30;;;;;;;5.13;4.18;;;13.20;99.90;;;;;;4824031;29;20057;-42
2022/07/05 05:18:56;;;;;;;6.75;4.60;;;13.30;99.90;;;;;;4846043;29;20101;-41
2022/07/05 05:21:22;;;;;;;6.50;4.78;;;13.40;99.90;;;;;;4848186;29;20136;-41
2022/07/05 05:23:47;;;;;;;7.75;4.82;;;13.50;99.90;;;;;;4853420;29;20070;-41
2022/07/05 05:26:13;;;;;;;5.97;4.47;;;13.70;99.90;;;;;;4841527;29;20048;-42
2022/07/05 05:28:39;;;;;;;6.32;4.50;;;13.80;99.90;;;;;;4844482;29;20086;-41
2022/07/05 05:31:05;;;;;;;6.40;4.07;;;13.90;99.90;;;;;;4855001;29;20045;-42
2022/07/05 05:33:31;;;;;;;6.63;3.72;;;14.00;99.90;;;;;;4846185;29;20062;-41
2022/07/05 05:35:57;;;;;;;5.95;3.58;;;14.20;99.90;;;;;;4851671;29;20190;-41
2022/07/05 05:38:22;;;;;;;5.65;3.95;;;14.30;99.90;;;;;;4838693;29;20041;-42
2022/07/05 05:40:48;;;;;;;7.28;3.75;;;14.50;99.90;;;;;;4851010;29;22133;-42
2022/07/05 05:43:14;;;;;;;6.25;3.83;;;14.60;99.90;;;;;;4853438;29;20065;-41
2022/07/05 05:45:39;;;;;;;4.25;3.03;;;14.70;99.90;;;;;;4851926;29;20097;-41
2022/07/05 05:48:05;;;;;;;3.90;2.80;;;14.80;99.90;;;;;;4837805;29;20082;-42
2022/07/05 05:50:33;;;;;;;5.30;2.80;;;14.90;99.90;;;;;;4837385;29;20058;-42
2022/07/05 05:53:00;;;;;;;4.13;2.55;;;15.10;99.90;;;;;;4851129;29;20526;-41
2022/07/05 05:55:27;;;;;;;5.50;2.55;;;15.30;99.90;;;;;;4855167;29;20054;-41
2022/07/05 05:57:53;;;;;;;3.38;2.70;;;15.40;99.90;;;;;;4840125;29;20058;-41
2022/07/05 06:00:20;;;;;;;3.95;2.00;;;15.50;99.90;;;;;;4855505;29;20510;-41
2022/07/05 06:02:47;;;;;;;4.80;2.28;;;15.60;99.90;;;;;;4851929;29;20508;-41
2022/07/05 06:05:13;;;;;;;4.97;1.83;;;15.80;99.90;;;;;;4847291;29;20510;-42
2022/07/05 06:07:53;;;;;;;6.32;1.83;;;15.90;99.90;;;;;;4831034;29;20055;-41
2022/07/05 06:10:23;;;;;;;6.32;1.40;;;16.00;99.90;;;;;;4853652;29;20174;-41
2022/07/05 06:12:50;;;;;;;6.97;1.52;;;16.10;99.90;;;;;;4841490;29;20057;-41
2022/07/05 06:15:16;;;;;;;6.15;1.40;;;16.10;99.90;;;;;;4831181;29;20523;-42
2022/07/05 06:17:42;;;;;;;3.97;1.60;;;16.20;99.90;;;;;;4832262;29;20057;-41
2022/07/05 06:20:10;;;;;;;5.00;1.38;;;16.30;99.90;;;;;;4846273;29;20211;-41
2022/07/05 06:22:36;;;;;;;4.22;1.17;;;16.40;99.90;;;;;;4845068;29;20642;-42
2022/07/05 06:25:03;;;;;;;6.43;1.33;;;16.50;99.90;;;;;;4851642;29;20133;-41
2022/07/05 06:27:28;;;;;;;6.32;1.10;;;16.60;99.90;;;;;;4835484;29;20163;-42
2022/07/05 06:29:54;;;;;;;2.40;1.02;;;16.70;99.90;;;;;;4833117;29;20148;-41
2022/07/05 06:32:20;;;;;;;4.47;1.05;;;16.70;99.90;;;;;;4849442;29;20060;-41
2022/07/05 06:34:45;;;;;;;3.45;1.02;;;16.60;99.90;;;;;;4848820;29;20049;-41
2022/07/05 06:37:11;;;;;;;2.95;1.20;;;16.70;99.90;;;;;;4831192;29;20064;-41
2022/07/05 06:39:36;;;;;;;5.88;1.02;;;16.80;99.90;;;;;;4847901;29;20082;-41
2022/07/05 06:42:02;;;;;;;3.28;0.98;;;16.80;99.90;;;;;;4850941;29;20409;-41
2022/07/05 06:44:28;;;;;;;5.10;1.02;;;16.90;99.90;;;;;;4850180;29;20194;-41
2022/07/05 06:46:54;;;;;;;4.32;0.80;;;17.00;99.90;;;;;;4832953;29;20058;-41
2022/07/05 06:49:19;;;;;;;4.10;0.80;;;17.00;99.90;;;;;;4846595;29;20108;-41
2022/07/05 06:51:45;;;;;;;5.28;0.60;;;17.10;99.90;;;;;;4831545;29;20439;-41
2022/07/05 06:54:11;;;;;;;3.30;0.90;;;17.10;99.90;;;;;;4833667;29;20050;-41
2022/07/05 06:56:36;;;;;;;3.55;1.13;;;17.30;99.90;;;;;;4834076;29;20136;-42
2022/07/05 06:59:02;;;;;;;4.22;0.73;;;17.30;99.90;;;;;;4841565;29;20454;-41
2022/07/05 07:01:28;;;;;;;2.95;0.75;;;17.40;99.90;;;;;;4847758;29;20050;-42
2022/07/05 07:03:54;;;;;;;3.83;0.63;;;17.50;99.90;;;;;;4830555;29;20053;-41
2022/07/05 07:06:20;;;;;;;4.15;0.55;;;17.50;99.90;;;;;;4840670;29;20081;-42
2022/07/05 07:09:31;;;;;;;3.80;0.80;;;17.60;99.90;;;;;;4841971;29;20089;-41
2022/07/05 07:11:31;;;;;;;4.90;0.82;;;17.60;99.90;;;;;;4834844;29;20085;-41
2022/07/05 07:13:57;;;;;;;3.88;0.60;;;17.60;99.90;;;;;;4846412;29;20068;-41
2022/07/05 07:16:23;;;;;;;2.85;0.40;;;17.70;99.90;;;;;;4840166;29;20045;-41
2022/07/05 07:18:48;;;;;;;4.30;0.60;;;17.70;99.90;;;;;;4845165;29;20098;-41
2022/07/05 07:21:14;;;;;;;5.43;0.60;;;17.70;99.90;;;;;;4846077;29;20062;-41
2022/07/05 07:23:40;;;;;;;3.20;0.60;;;17.70;99.90;;;;;;4854015;29;20076;-42
2022/07/05 07:26:05;;;;;;;4.25;0.40;;;17.70;99.90;;;;;;4850665;29;20101;-42
2022/07/05 07:28:31;;;;;;;2.55;0.30;;;17.80;99.90;;;;;;4840345;29;20053;-41
2022/07/05 07:30:57;;;;;;;2.80;0.47;;;17.70;99.90;;;;;;4856264;29;20089;-41
2022/07/05 07:33:22;;;;;;;3.03;0.28;;;17.70;99.90;;;;;;4850704;29;20052;-41
2022/07/05 07:35:48;;;;;;;6.18;0.47;;;17.70;99.90;;;;;;4850314;29;20136;-41
2022/07/05 07:38:14;;;;;;;5.32;0.52;;;17.70;99.90;;;;;;4823410;29;20054;-41
2022/07/05 07:40:40;;;;;;;3.70;0.47;;;17.70;99.90;;;;;;4837553;29;20057;-42
2022/07/05 07:43:05;;;;;;;2.65;0.45;;;17.70;99.90;;;;;;4854315;29;20057;-43
2022/07/05 07:45:31;;;;;;;3.60;0.50;;;17.70;99.90;;;;;;4819045;29;20124;-43
2022/07/05 07:47:57;;;;;;;3.88;0.60;;;17.80;99.90;;;;;;4838551;29;20054;-43
2022/07/05 07:50:23;;;;;;;4.78;0.50;;;17.80;99.90;;;;;;4856230;29;20122;-43
2022/07/05 07:52:48;;;;;;;4.15;0.75;;;17.80;99.90;;;;;;4849741;29;20057;-42
2022/07/05 07:55:15;;;;;;;2.78;0.40;;;17.80;99.90;;;;;;4857523;29;20089;-42
2022/07/05 07:57:41;;;;;;;3.05;0.40;;;17.70;99.90;;;;;;4841761;29;20041;-42
2022/07/05 08:00:07;;;;;;;4.05;0.30;;;17.70;99.90;;;;;;4854299;29;20054;-42
2022/07/05 08:02:33;;;;;;;3.40;0.45;;;17.70;99.90;;;;;;4853089;29;20053;-42
2022/07/05 08:04:59;;;;;;;2.97;0.50;;;17.60;99.90;;;;;;4849679;29;20065;-42
2022/07/05 08:07:25;;;;;;;4.35;0.52;;;17.60;99.90;;;;;;4842317;29;20136;-42
2022/07/05 08:09:52;;;;;;;7.40;0.65;;;17.60;99.90;;;;;;4849244;29;20194;-42
2022/07/05 08:12:19;;;;;;;2.67;0.50;;;17.60;99.90;;;;;;4841038;29;20061;-42
2022/07/05 08:14:45;;;;;;;2.95;0.50;;;17.70;99.90;;;;;;4843638;29;20056;-42
2022/07/05 08:17:12;;;;;;;1.80;0.50;;;17.70;99.90;;;;;;4829623;29;20049;-43
2022/07/05 08:22:23;;;;;;;4.35;0.43;;;17.70;99.90;;;;;;4851442;29;21906;-42
2022/07/05 08:24:49;;;;;;;4.00;0.38;;;17.70;99.90;;;;;;4856136;29;20136;-42
2022/07/05 08:27:15;;;;;;;4.63;0.60;;;17.70;99.90;;;;;;4816335;29;20076;-42
2022/07/05 08:29:42;;;;;;;2.83;0.50;;;17.80;99.90;;;;;;4849485;29;20455;-43
2022/07/05 08:32:08;;;;;;;2.83;0.20;;;17.80;99.90;;;;;;4846223;29;20050;-42
2022/07/05 08:34:34;;;;;;;3.78;0.40;;;17.90;99.90;;;;;;4848588;29;20050;-42
2022/07/05 08:37:00;;;;;;;3.25;0.40;;;18.00;99.90;;;;;;4833521;29;20053;-42
2022/07/05 08:39:26;;;;;;;4.30;0.63;;;18.10;99.90;;;;;;4832463;29;20064;-42
2022/07/05 08:41:53;;;;;;;3.47;0.50;;;18.10;99.90;;;;;;4846266;29;20054;-42
2022/07/05 08:44:21;;;;;;;2.10;0.40;;;18.10;99.90;;;;;;4846447;29;20053;-42
2022/07/05 08:46:48;;;;;;;5.07;0.68;;;18.10;99.90;;;;;;4833488;29;20527;-42
2022/07/05 08:49:15;;;;;;;2.45;0.40;;;18.20;99.90;;;;;;4849080;29;20065;-42
2022/07/05 08:51:42;;;;;;;4.35;0.43;;;18.20;99.90;;;;;;4843444;29;20057;-42
2022/07/05 08:54:11;;;;;;;3.55;0.30;;;18.20;99.90;;;;;;4840260;29;20636;-42
2022/07/05 08:56:40;;;;;;;3.75;0.40;;;18.20;99.90;;;;;;4801809;29;20125;-42
2022/07/05 08:59:06;;;;;;;2.45;0.30;;;18.10;99.90;;;;;;4838869;29;20058;-42
2022/07/05 09:01:34;;;;;;;4.60;0.50;;;18.20;99.90;;;;;;4824556;29;20062;-42
2022/07/05 09:04:03;;;;;;;1.92;0.22;;;18.20;99.90;;;;;;4823539;29;20140;-42
2022/07/05 09:06:32;;;;;;;4.80;0.50;;;18.30;99.90;;;;;;4819038;29;20817;-42
2022/07/05 09:08:59;;;;;;;2.38;0.55;;;18.30;99.90;;;;;;4840768;29;20109;-42
2022/07/05 09:11:48;;;;;;;2.38;0.35;;;18.30;99.90;;;;;;4848224;29;20053;-42
2022/07/05 09:14:23;;;;;;;4.70;0.45;;;18.30;99.90;;;;;;4849005;29;20054;-42
2022/07/05 09:16:49;;;;;;;3.17;0.60;;;18.40;99.90;;;;;;4832196;29;20512;-42
2022/07/05 09:19:15;;;;;;;3.03;0.52;;;18.30;99.90;;;;;;4848580;29;20125;-42
2022/07/05 09:21:40;;;;;;;2.92;0.38;;;18.20;99.90;;;;;;4850083;29;20194;-42
2022/07/05 09:24:09;;;;;;;7.47;0.63;;;18.20;99.90;;;;;;4832086;29;20557;-42
2022/07/05 09:26:44;;;;;;;1.95;0.43;;;18.30;99.90;;;;;;4833758;29;20101;-42
2022/07/05 09:29:12;;;;;;;1.65;0.30;;;18.30;99.90;;;;;;4844026;29;20057;-42
2022/07/05 09:31:42;;;;;;;3.17;0.50;;;18.50;99.90;;;;;;4848686;29;20109;-42
2022/07/05 09:34:10;;;;;;;4.28;0.45;;;18.50;99.90;;;;;;4849956;29;20549;-42
2022/07/05 09:36:54;;;;;;;2.80;0.20;;;18.40;99.90;;;;;;4818804;29;20084;-42
2022/07/05 09:39:29;;;;;;;5.35;0.22;;;18.30;99.90;;;;;;4852193;29;20664;-42
2022/07/05 09:42:20;;;;;;;2.75;0.40;;;18.40;99.90;;;;;;4849378;29;20661;-42
2022/07/05 09:44:47;;;;;;;4.05;0.57;;;18.40;99.90;;;;;;4848985;29;20717;-42
2022/07/05 09:47:24;;;;;;;1.88;0.60;;;18.30;99.90;;;;;;4830565;29;20160;-42
2022/07/05 09:49:55;;;;;;;2.15;0.35;;;18.40;99.90;;;;;;4850938;29;20286;-41
2022/07/05 09:52:41;;;;;;;2.97;0.30;;;18.40;99.90;;;;;;4849702;29;20049;-41
2022/07/05 09:55:08;;;;;;;2.25;0.40;;;18.40;99.90;;;;;;4844343;29;20297;-42
2022/07/05 09:57:36;;;;;;;2.95;0.50;;;18.40;99.90;;;;;;4832914;29;20076;-41
2022/07/05 10:00:11;;;;;;;2.00;0.40;;;18.50;99.90;;;;;;4838722;29;20045;-41
2022/07/05 10:02:40;;;;;;;2.25;0.43;;;18.50;99.90;;;;;;4845716;29;20042;-41
2022/07/05 10:05:11;;;;;;;4.10;0.73;;;18.50;99.90;;;;;;4831726;29;20109;-41
2022/07/05 10:07:44;;;;;;;3.88;0.68;;;18.50;99.90;;;;;;4829033;29;20050;-41
2022/07/05 10:10:14;;;;;;;1.90;0.43;;;18.40;99.90;;;;;;4844749;29;20532;-42
2022/07/05 10:12:42;;;;;;;4.00;0.67;;;18.50;99.90;;;;;;4845632;29;20064;-42
2022/07/05 10:15:13;;;;;;;5.25;0.50;;;18.50;99.90;;;;;;4852960;29;20050;-42
2022/07/05 10:17:52;;;;;;;2.78;0.43;;;18.50;99.90;;;;;;4831889;29;20054;-42
2022/07/05 10:20:29;;;;;;;2.75;0.38;;;18.50;99.90;;;;;;4845082;29;20110;-41
2022/07/05 10:22:56;;;;;;;2.83;0.65;;;18.60;99.90;;;;;;4815997;29;20086;-42
2022/07/05 10:25:23;;;;;;;2.80;0.60;;;18.70;99.90;;;;;;4848384;29;20041;-42
2022/07/05 10:27:53;;;;;;;5.72;0.47;;;18.70;99.90;;;;;;4832401;29;21122;-42
2022/07/05 10:30:21;;;;;;;3.55;0.50;;;18.80;99.90;;;;;;4846179;29;20049;-41
2022/07/05 10:32:48;;;;;;;3.38;0.68;;;18.80;99.90;;;;;;4844356;29;20061;-41
2022/07/05 10:35:15;;;;;;;2.50;0.60;;;18.80;99.90;;;;;;4844462;29;20057;-41
2022/07/05 10:37:41;;;;;;;3.38;0.57;;;18.90;99.90;;;;;;4827476;29;20069;-41
2022/07/05 10:40:07;;;;;;;3.35;0.63;;;18.80;99.90;;;;;;4828977;29;20049;-41
2022/07/05 10:42:45;;;;;;;4.00;0.73;;;18.80;99.90;;;;;;4845149;29;20045;-42
2022/07/05 10:45:26;;;;;;;2.10;0.60;;;18.90;99.90;;;;;;4845701;29;20053;-41
2022/07/05 10:48:15;;;;;;;4.15;0.40;;;18.90;99.90;;;;;;4831523;29;20657;-41
2022/07/05 10:51:00;;;;;;;2.60;0.60;;;19.00;99.90;;;;;;4845586;29;20053;-41
2022/07/05 10:53:35;;;;;;;3.25;0.50;;;19.10;99.90;;;;;;4847985;29;20045;-41
2022/07/05 10:56:03;;;;;;;4.40;0.50;;;19.10;99.90;;;;;;4832060;29;20076;-41
2022/07/05 10:58:32;;;;;;;2.45;0.40;;;19.10;99.90;;;;;;4836301;29;20182;-41
2022/07/05 11:01:19;;;;;;;3.00;0.52;;;19.00;99.90;;;;;;4852752;29;20053;-41
2022/07/05 11:04:07;;;;;;;2.53;0.60;;;19.00;99.90;;;;;;4851214;29;20096;-42
2022/07/05 11:06:39;;;;;;;3.08;0.50;;;19.00;99.90;;;;;;4831853;29;20046;-41
2022/07/05 11:09:10;;;;;;;2.15;0.30;;;19.00;99.90;;;;;;4848349;29;20092;-41
2022/07/05 11:11:37;;;;;;;1.70;0.43;;;19.10;99.90;;;;;;4846304;29;20077;-41
2022/07/05 11:14:25;;;;;;;2.90;0.50;;;19.10;99.90;;;;;;4848728;29;20693;-41
2022/07/05 11:17:09;;;;;;;2.38;0.60;;;19.10;99.90;;;;;;4804624;29;20069;-41
2022/07/05 11:19:57;;;;;;;1.90;0.30;;;19.20;99.90;;;;;;4851363;29;20067;-41
2022/07/05 11:22:23;;;;;;;1.88;0.28;;;19.10;99.90;;;;;;4850649;29;20053;-41
2022/07/05 11:24:49;;;;;;;2.63;0.30;;;19.10;99.90;;;;;;4853249;29;20059;-41
2022/07/05 11:27:14;;;;;;;1.98;0.30;;;19.00;99.90;;;;;;4836152;29;20046;-42
2022/07/05 11:29:51;;;;;;;3.47;0.35;;;19.00;99.90;;;;;;4812482;29;20080;-42
2022/07/05 11:32:21;;;;;;;1.95;0.10;;;19.00;99.90;;;;;;4852359;29;20045;-41
2022/07/05 11:34:52;;;;;;;2.08;0.32;;;18.90;99.90;;;;;;4853529;29;20584;-41
2022/07/05 11:37:19;;;;;;;;;;;18.80;99.90;;;;;;4837202;29;20133;-42
2022/07/05 11:39:48;;;;;;;3.17;0.60;;;18.80;99.90;;;;;;4853661;29;20474;-41
2022/07/05 11:42:21;;;;;;;6.97;0.77;;;18.80;99.90;;;;;;4848644;29;20053;-41
2022/07/05 11:44:50;;;;;;;5.35;0.60;;;18.70;99.90;;;;;;4853072;29;20058;-41
2022/07/05 11:47:19;;;;;;;3.45;0.80;;;18.70;99.90;;;;;;4821617;29;20065;-41
2022/07/05 11:49:56;;;;;;;5.65;0.45;;;18.60;99.90;;;;;;4853087;29;20081;-41
2022/07/05 11:52:29;;;;;;;2.15;0.50;;;18.60;99.90;;;;;;4846023;29;20052;-41
2022/07/05 11:55:00;;;;;;;2.13;0.50;;;18.50;99.90;;;;;;4833610;29;20144;-41
2022/07/05 11:57:26;;;;;;;4.80;0.90;;;18.50;99.90;;;;;;4834713;29;20049;-41
2022/07/05 11:59:53;;;;;;;2.72;0.68;;;18.40;99.90;;;;;;4850888;29;20052;-41
2022/07/05 12:02:18;;;;;;;3.60;0.70;;;18.30;99.90;;;;;;4827963;29;20749;-41
2022/07/05 12:04:49;;;;;;;3.78;0.50;;;18.20;99.90;;;;;;4850756;29;20045;-41
2022/07/05 12:07:32;;;;;;;4.63;0.68;;;18.20;99.90;;;;;;4832773;29;20077;-42
2022/07/05 12:12:44;;;;;;;3.05;0.55;;;18.20;99.90;;;;;;4849166;29;20082;-42
2022/07/05 12:15:14;;;;;;;3.05;0.50;;;18.20;99.90;;;;;;4850792;29;20065;-41
2022/07/05 12:17:45;;;;;;;3.50;0.63;;;18.20;99.90;;;;;;4833540;29;20049;-42
2022/07/05 12:20:15;;;;;;;3.60;0.50;;;18.30;99.90;;;;;;4848415;29;20322;-41
2022/07/05 12:22:42;;;;;;;5.90;0.77;;;18.50;99.90;;;;;;4847221;29;20057;-42
2022/07/05 12:25:12;;;;;;;4.00;0.57;;;18.60;99.90;;;;;;4850389;29;20057;-41
2022/07/05 12:27:40;;;;;;;4.10;0.45;;;18.70;99.90;;;;;;4834052;29;20072;-44
2022/07/05 12:30:09;;;;;;;4.63;0.85;;;18.70;99.90;;;;;;4835643;29;20053;-41
2022/07/05 12:32:53;;;;;;;3.42;0.60;;;18.90;99.90;;;;;;4848573;29;20081;-42
2022/07/05 12:35:29;;;;;;;2.50;0.45;;;19.00;99.90;;;;;;4851174;29;20181;-41
2022/07/05 12:37:56;;;;;;;6.20;0.40;;;18.90;99.90;;;;;;4836913;29;20136;-41
2022/07/05 12:40:24;;;;;;;5.40;0.60;;;18.90;99.90;;;;;;4851185;29;20049;-41
2022/07/05 12:43:03;;;;;;;5.28;0.43;;;18.80;99.90;;;;;;4850735;29;20065;-41
2022/07/05 12:45:29;;;;;;;1.77;0.40;;;18.80;99.90;;;;;;4849245;29;20049;-41
2022/07/05 12:47:57;;;;;;;1.30;0.50;;;18.80;99.90;;;;;;4832369;29;20838;-42
2022/07/05 12:50:31;;;;;;;1.92;0.68;;;18.80;99.90;;;;;;4846882;29;20137;-41
2022/07/05 12:53:00;;;;;;;3.30;0.60;;;18.70;99.90;;;;;;4848398;29;20061;-41
2022/07/05 12:58:21;;;;;;;1.85;0.32;;;18.60;99.90;;;;;;4835788;29;20410;-41
2022/07/05 13:00:46;;;;;;;3.35;0.30;;;18.50;99.90;;;;;;4851450;29;20069;-41